createdAt,value
2022-12-01T00:02:21.813Z,13.85
2022-12-01T00:04:49.736Z,14.57
2022-12-01T00:07:16.475Z,12.60
2022-12-01T00:09:42.937Z,11.90
2022-12-01T00:12:09.569Z,12.38
2022-12-01T00:14:36.384Z,10.63
2022-12-01T00:17:03.257Z,10.97
2022-12-01T00:19:29.757Z,10.85
2022-12-01T00:21:57.800Z,10.73
2022-12-01T00:24:24.325Z,10.40
2022-12-01T00:26:50.871Z,10.52
2022-12-01T00:29:17.425Z,11.30
2022-12-01T00:31:43.969Z,12.65
2022-12-01T00:34:24.476Z,12.90
2022-12-01T00:36:51.231Z,12.23
2022-12-01T00:39:19.128Z,13.43
2022-12-01T00:41:48.128Z,13.93
2022-12-01T00:44:14.639Z,13.68
2022-12-01T00:46:41.304Z,14.68
2022-12-01T00:49:11.974Z,13.55
2022-12-01T00:51:38.459Z,13.75
2022-12-01T00:54:05.161Z,13.23
2022-12-01T00:56:33.192Z,13.38
2022-12-01T00:58:59.693Z,13.27
2022-12-01T01:01:26.265Z,12.40
2022-12-01T01:03:52.879Z,13.48
2022-12-01T01:06:19.362Z,11.50
2022-12-01T01:08:45.898Z,12.15
2022-12-01T01:11:12.445Z,12.35
2022-12-01T01:13:40.371Z,11.32
2022-12-01T01:16:10.320Z,12.95
2022-12-01T01:18:36.791Z,11.10
2022-12-01T01:21:05.697Z,11.55
2022-12-01T01:23:32.874Z,12.07
2022-12-01T01:26:02.375Z,12.57
2022-12-01T01:28:30.729Z,11.48
2022-12-01T01:30:58.742Z,11.33
2022-12-01T01:33:25.556Z,11.55
2022-12-01T01:35:52.046Z,12.65
2022-12-01T01:38:18.541Z,13.10
2022-12-01T01:40:45.920Z,13.02
2022-12-01T01:43:14.798Z,12.73
2022-12-01T01:45:41.832Z,13.20
2022-12-01T01:48:11.752Z,11.98
2022-12-01T01:50:38.583Z,12.48
2022-12-01T01:53:09.026Z,13.57
2022-12-01T01:55:36.531Z,13.10
2022-12-01T01:58:09.292Z,13.45
2022-12-01T02:00:37.013Z,13.52
2022-12-01T02:03:03.970Z,13.45
2022-12-01T02:05:34.437Z,13.38
2022-12-01T02:08:02.731Z,13.37
2022-12-01T02:10:40.166Z,13.43
2022-12-01T02:13:20.968Z,13.77
2022-12-01T02:15:56.167Z,12.85
2022-12-01T02:18:29.411Z,13.82
2022-12-01T02:21:23.062Z,16.10
2022-12-01T02:24:12.230Z,14.88
2022-12-01T02:26:46.728Z,15.38
2022-12-01T02:29:51.781Z,15.13
2022-12-01T02:32:29.413Z,15.55
2022-12-01T02:34:58.806Z,16.73
2022-12-01T02:37:33.806Z,15.80
2022-12-01T02:40:06.158Z,15.15
2022-12-01T02:42:39.803Z,16.55
2022-12-01T02:45:12.903Z,15.15
2022-12-01T02:47:43.664Z,13.33
2022-12-01T02:50:11.644Z,15.40
2022-12-01T02:52:39.926Z,16.38
2022-12-01T02:55:06.870Z,16.02
2022-12-01T02:57:33.410Z,14.43
2022-12-01T03:00:02.842Z,14.80
2022-12-01T03:02:35.877Z,14.65
2022-12-01T03:05:08.447Z,13.45
2022-12-01T03:07:46.843Z,14.73
2022-12-01T03:10:19.975Z,15.80
2022-12-01T03:12:57.731Z,14.07
2022-12-01T03:15:32.396Z,14.68
2022-12-01T03:18:06.776Z,15.65
2022-12-01T03:20:40.976Z,16.63
2022-12-01T03:23:12.040Z,15.88
2022-12-01T03:25:42.228Z,15.60
2022-12-01T03:28:21.139Z,15.10
2022-12-01T03:30:52.541Z,16.73
2022-12-01T03:33:24.927Z,16.35
2022-12-01T03:35:58.690Z,17.23
2022-12-01T03:38:26.583Z,16.17
2022-12-01T03:40:59.208Z,15.80
2022-12-01T03:43:32.099Z,14.38
2022-12-01T03:46:04.074Z,16.10
2022-12-01T03:48:31.406Z,16.90
2022-12-01T03:51:10.989Z,16.57
2022-12-01T03:53:49.686Z,16.23
2022-12-01T03:56:20.204Z,15.60
2022-12-01T03:58:49.944Z,13.80
2022-12-01T04:01:16.523Z,14.07
2022-12-01T04:03:45.634Z,15.40
2022-12-01T04:06:13.638Z,14.85
2022-12-01T04:08:40.300Z,13.52
2022-12-01T04:11:07.016Z,12.55
2022-12-01T04:13:33.477Z,13.55
2022-12-01T04:16:00.203Z,12.90
2022-12-01T04:18:26.846Z,10.35
2022-12-01T04:20:53.353Z,13.55
2022-12-01T04:23:21.216Z,12.20
2022-12-01T04:25:47.673Z,13.18
2022-12-01T04:28:14.261Z,14.13
2022-12-01T04:30:40.715Z,13.82
2022-12-01T04:33:07.219Z,13.88
2022-12-01T04:35:33.719Z,13.75
2022-12-01T04:38:00.282Z,14.25
2022-12-01T04:40:28.167Z,13.70
2022-12-01T04:42:56.132Z,12.13
2022-12-01T04:45:22.646Z,14.60
2022-12-01T04:47:52.237Z,12.60
2022-12-01T04:50:18.856Z,12.63
2022-12-01T04:52:45.329Z,10.23
2022-12-01T04:55:11.992Z,10.20
2022-12-01T04:57:39.829Z,12.35
2022-12-01T05:00:07.652Z,11.65
2022-12-01T05:02:34.203Z,13.07
2022-12-01T05:05:00.939Z,12.30
2022-12-01T05:07:27.480Z,11.63
2022-12-01T05:09:54.050Z,12.63
2022-12-01T05:12:20.595Z,11.00
2022-12-01T05:14:51.702Z,9.07
2022-12-01T05:17:18.227Z,10.90
2022-12-01T05:19:47.951Z,11.82
2022-12-01T05:22:14.967Z,12.23
2022-12-01T05:24:41.557Z,9.82
2022-12-01T05:27:08.016Z,11.35
2022-12-01T05:29:34.489Z,10.63
2022-12-01T05:32:02.492Z,11.57
2022-12-01T05:34:29.119Z,11.88
2022-12-01T05:36:55.605Z,12.85
2022-12-01T05:39:22.097Z,12.02
2022-12-01T05:41:48.692Z,10.43
2022-12-01T05:44:15.152Z,11.13
2022-12-01T05:46:41.675Z,11.20
2022-12-01T05:49:09.506Z,11.55
2022-12-01T05:51:36.101Z,13.13
2022-12-01T05:54:03.123Z,12.43
2022-12-01T05:56:29.754Z,11.52
2022-12-01T05:58:56.278Z,12.77
2022-12-01T06:01:22.991Z,10.52
2022-12-01T06:03:49.530Z,12.15
2022-12-01T06:06:17.416Z,11.30
2022-12-01T06:08:46.559Z,12.18
2022-12-01T06:11:13.123Z,12.65
2022-12-01T06:13:39.658Z,11.82
2022-12-01T06:16:07.077Z,12.95
2022-12-01T06:18:37.409Z,12.03
2022-12-01T06:21:06.363Z,11.63
2022-12-01T06:23:34.587Z,11.13
2022-12-01T06:26:01.439Z,13.18
2022-12-01T06:28:27.948Z,12.10
2022-12-01T06:31:00.994Z,9.10
2022-12-01T06:33:29.759Z,11.57
2022-12-01T06:35:59.980Z,11.75
2022-12-01T06:38:32.688Z,11.65
2022-12-01T06:41:06.588Z,11.63
2022-12-01T06:43:35.674Z,12.00
2022-12-01T06:46:02.991Z,11.45
2022-12-01T06:48:29.622Z,13.00
2022-12-01T06:50:57.169Z,12.48
2022-12-01T06:53:23.676Z,12.50
2022-12-01T06:55:50.242Z,13.07
2022-12-01T06:58:18.759Z,12.27
2022-12-01T07:00:51.786Z,11.82
2022-12-01T07:03:18.672Z,12.00
2022-12-01T07:05:45.344Z,11.60
2022-12-01T07:08:11.865Z,12.10
2022-12-01T07:10:38.359Z,11.85
2022-12-01T07:13:04.911Z,12.93
2022-12-01T07:15:32.866Z,13.50
2022-12-01T07:17:59.343Z,13.05
2022-12-01T07:20:25.910Z,12.63
2022-12-01T07:22:54.040Z,12.43
2022-12-01T07:25:20.598Z,12.98
2022-12-01T07:27:47.079Z,12.77
2022-12-01T07:30:14.131Z,12.55
2022-12-01T07:32:41.998Z,12.37
2022-12-01T07:35:08.846Z,13.38
2022-12-01T07:37:35.306Z,13.40
2022-12-01T07:40:01.863Z,13.82
2022-12-01T07:42:28.360Z,13.32
2022-12-01T07:44:54.835Z,14.27
2022-12-01T07:47:21.339Z,13.65
2022-12-01T07:49:49.458Z,14.07
2022-12-01T07:52:16.164Z,15.07
2022-12-01T07:54:42.683Z,14.48
2022-12-01T07:57:09.339Z,14.03
2022-12-01T07:59:35.838Z,14.60
2022-12-01T08:02:02.410Z,14.40
2022-12-01T08:04:29.055Z,16.08
2022-12-01T08:06:57.020Z,16.50
2022-12-01T08:09:23.516Z,16.93
2022-12-01T08:11:49.980Z,17.25
2022-12-01T08:14:16.898Z,16.35
2022-12-01T08:16:43.457Z,17.00
2022-12-01T08:19:10.246Z,16.20
2022-12-01T08:21:36.841Z,17.63
2022-12-01T08:24:05.447Z,17.25
2022-12-01T08:26:32.400Z,16.38
2022-12-01T08:28:58.948Z,16.60
2022-12-01T08:31:28.485Z,17.08
2022-12-01T08:33:55.322Z,15.10
2022-12-01T08:36:22.680Z,16.65
2022-12-01T08:38:50.881Z,12.73
2022-12-01T08:41:19.263Z,15.05
2022-12-01T08:44:01.722Z,14.73
2022-12-01T08:46:31.253Z,14.63
2022-12-01T08:48:58.205Z,12.43
2022-12-01T08:51:25.378Z,14.68
2022-12-01T08:53:52.563Z,13.55
2022-12-01T08:56:23.044Z,12.40
2022-12-01T08:58:49.880Z,12.77
2022-12-01T09:01:17.331Z,12.38
2022-12-01T09:03:44.529Z,12.25
2022-12-01T09:06:15.606Z,11.73
2022-12-01T09:11:24.274Z,12.40
2022-12-01T09:13:54.536Z,10.95
2022-12-01T09:16:21.827Z,11.90
2022-12-01T09:18:48.438Z,11.55
2022-12-01T09:21:17.093Z,11.32
2022-12-01T09:23:44.044Z,10.77
2022-12-01T09:26:13.875Z,13.57
2022-12-01T09:28:42.000Z,11.32
2022-12-01T09:31:10.167Z,10.10
2022-12-01T09:33:37.054Z,10.32
2022-12-01T09:36:05.873Z,10.07
2022-12-01T09:38:34.203Z,9.73
2022-12-01T09:41:04.480Z,9.57
2022-12-01T09:43:38.853Z,9.05
2022-12-01T09:46:13.219Z,9.35
2022-12-01T09:48:42.798Z,9.40
2022-12-01T09:51:13.495Z,9.40
2022-12-01T09:53:42.031Z,9.82
2022-12-01T09:56:19.574Z,8.95
2022-12-01T09:58:48.055Z,8.95
2022-12-01T10:01:23.052Z,9.17
2022-12-01T10:03:57.420Z,9.32
2022-12-01T10:06:31.803Z,8.00
2022-12-01T10:09:05.389Z,8.82
2022-12-01T10:11:35.217Z,8.07
2022-12-01T10:14:04.223Z,7.77
2022-12-01T10:16:37.413Z,8.77
2022-12-01T10:19:11.357Z,8.60
2022-12-01T10:21:52.722Z,9.35
2022-12-01T10:24:31.956Z,9.65
2022-12-01T10:27:10.767Z,11.30
2022-12-01T10:29:47.707Z,10.10
2022-12-01T10:32:19.277Z,11.13
2022-12-01T10:34:47.354Z,11.30
2022-12-01T10:37:18.710Z,11.63
2022-12-01T10:39:48.274Z,11.00
2022-12-01T10:42:19.393Z,11.25
2022-12-01T10:44:46.489Z,13.20
2022-12-01T10:47:20.131Z,11.43
2022-12-01T10:49:47.131Z,11.73
2022-12-01T10:52:31.833Z,10.93
2022-12-01T10:54:58.385Z,11.50
2022-12-01T10:57:45.453Z,13.63
2022-12-01T11:00:57.520Z,12.77
2022-12-01T11:03:21.799Z,13.10
2022-12-01T11:05:52.359Z,13.07
2022-12-01T11:08:23.002Z,12.82
2022-12-01T11:10:50.538Z,12.80
2022-12-01T11:13:22.123Z,14.38
2022-12-01T11:15:52.493Z,12.88
2022-12-01T11:18:24.105Z,12.97
2022-12-01T11:21:08.752Z,12.50
2022-12-01T11:23:36.943Z,13.05
2022-12-01T11:26:10.831Z,12.18
2022-12-01T11:28:43.053Z,10.88
2022-12-01T11:31:10.773Z,12.37
2022-12-01T11:33:45.424Z,12.57
2022-12-01T11:36:21.745Z,13.90
2022-12-01T11:38:49.189Z,14.18
2022-12-01T11:41:30.956Z,13.57
2022-12-01T11:44:01.772Z,15.60
2022-12-01T11:46:32.716Z,12.60
2022-12-01T11:49:01.057Z,13.25
2022-12-01T11:51:30.671Z,14.43
2022-12-01T11:54:06.627Z,14.35
2022-12-01T12:03:30.174Z,13.18
2022-12-01T12:06:38.827Z,14.85
2022-12-01T12:09:13.904Z,14.48
2022-12-01T12:11:53.068Z,13.83
2022-12-01T12:14:28.285Z,14.15
2022-12-01T12:17:11.716Z,15.00
2022-12-01T12:20:08.611Z,14.70
2022-12-01T12:22:54.940Z,15.80
2022-12-01T12:25:30.113Z,16.27
2022-12-01T12:28:12.945Z,16.75
2022-12-01T12:37:24.516Z,15.80
2022-12-01T12:40:06.856Z,15.27
2022-12-01T12:42:48.189Z,16.98
2022-12-01T12:45:22.640Z,15.95
2022-12-01T12:48:02.770Z,15.20
2022-12-01T12:50:37.078Z,17.17
2022-12-01T12:53:10.548Z,18.30
2022-12-01T12:55:44.037Z,17.63
2022-12-01T12:58:14.829Z,19.02
2022-12-01T13:00:46.271Z,17.35
2022-12-01T13:03:18.019Z,19.10
2022-12-01T13:05:51.136Z,18.20
2022-12-01T13:08:22.753Z,18.25
2022-12-01T13:10:57.910Z,19.58
2022-12-01T13:13:29.834Z,17.58
2022-12-01T13:15:58.866Z,18.15
2022-12-01T13:18:32.753Z,18.03
2022-12-01T13:21:02.487Z,18.17
2022-12-01T13:23:29.435Z,18.83
2022-12-01T13:26:00.357Z,17.88
2022-12-01T13:28:31.137Z,17.95
2022-12-01T13:31:04.187Z,20.70
2022-12-01T13:33:32.231Z,17.70
2022-12-01T13:36:29.788Z,20.10
2022-12-01T13:38:56.836Z,20.05
2022-12-01T13:41:28.438Z,19.65
2022-12-01T13:43:59.543Z,20.27
2022-12-01T13:46:28.189Z,21.40
2022-12-01T13:48:57.512Z,20.58
2022-12-01T13:51:24.700Z,20.65
2022-12-01T13:54:27.501Z,20.17
2022-12-01T13:57:01.669Z,20.03
2022-12-01T14:00:18.681Z,21.85
2022-12-01T14:02:45.714Z,19.45
2022-12-01T14:05:44.545Z,22.05
2022-12-01T14:08:21.282Z,21.88
2022-12-01T14:10:54.744Z,20.90
2022-12-01T14:13:23.539Z,21.33
2022-12-01T14:15:55.171Z,22.60
2022-12-01T14:18:44.084Z,23.10
2022-12-01T14:21:12.159Z,21.85
2022-12-01T14:23:57.979Z,22.63
2022-12-01T14:26:25.172Z,21.45
2022-12-01T14:29:23.413Z,21.58
2022-12-01T14:32:18.955Z,21.42
2022-12-01T14:34:49.668Z,22.42
2022-12-01T14:37:19.072Z,22.07
2022-12-01T14:39:50.297Z,21.20
2022-12-01T14:42:27.716Z,22.00
2022-12-01T14:44:57.141Z,22.20
2022-12-01T14:47:27.349Z,22.25
2022-12-01T14:49:58.070Z,22.27
2022-12-01T14:52:32.439Z,22.23
2022-12-01T14:55:01.739Z,22.25
2022-12-01T14:57:32.430Z,22.05
2022-12-01T15:00:05.957Z,23.02
2022-12-01T15:02:39.708Z,21.87
2022-12-01T15:05:10.893Z,23.08
2022-12-01T15:07:38.734Z,21.83
2022-12-01T15:10:06.697Z,21.73
2022-12-01T15:12:33.524Z,23.17
2022-12-01T15:15:00.119Z,23.83
2022-12-01T15:17:34.887Z,23.52
2022-12-01T15:20:01.643Z,22.52
2022-12-01T15:22:30.918Z,18.13
2022-12-01T15:25:06.577Z,22.95
2022-12-01T15:27:33.338Z,23.20
2022-12-01T15:30:01.419Z,22.00
2022-12-01T15:32:31.015Z,21.65
2022-12-01T15:34:59.219Z,23.77
2022-12-01T15:37:27.465Z,23.67
2022-12-01T15:40:11.939Z,23.67
2022-12-01T15:42:44.377Z,22.17
2022-12-01T15:45:18.077Z,22.40
2022-12-01T15:47:48.235Z,23.02
2022-12-01T15:50:28.155Z,21.77
2022-12-01T15:52:55.113Z,23.37
2022-12-01T15:55:25.529Z,24.80
2022-12-01T15:57:52.265Z,21.67
2022-12-01T16:00:19.867Z,21.52
2022-12-01T16:02:54.488Z,21.63
2022-12-01T16:05:28.160Z,22.40
2022-12-01T16:14:03.985Z,20.52
2022-12-01T16:16:40.648Z,21.65
2022-12-01T16:19:28.875Z,20.70
2022-12-01T16:22:09.645Z,21.40
2022-12-01T16:24:51.993Z,21.50
2022-12-01T16:27:25.881Z,19.70
2022-12-01T16:29:58.544Z,21.30
2022-12-01T16:32:35.854Z,19.47
2022-12-01T16:35:27.714Z,20.55
2022-12-01T16:50:32.201Z,19.33
2022-12-01T16:53:04.661Z,23.27
2022-12-01T16:55:37.583Z,21.42
2022-12-01T16:58:14.897Z,21.90
2022-12-01T17:00:45.604Z,19.43
2022-12-01T17:03:17.933Z,19.17
2022-12-01T17:05:46.008Z,21.50
2022-12-01T17:08:14.470Z,20.63
2022-12-01T17:10:41.646Z,23.52
2022-12-01T17:13:11.605Z,20.63
2022-12-01T17:15:40.785Z,19.33
2022-12-01T17:18:09.529Z,19.90
2022-12-01T17:20:36.315Z,19.95
2022-12-01T17:23:04.678Z,20.35
2022-12-01T17:25:31.642Z,20.33
2022-12-01T17:27:58.488Z,18.48
2022-12-01T17:30:25.078Z,19.08
2022-12-01T17:32:51.635Z,18.27
2022-12-01T17:35:18.278Z,21.35
2022-12-01T17:37:44.843Z,20.27
2022-12-01T17:40:13.735Z,19.83
2022-12-01T17:42:45.477Z,21.33
2022-12-01T17:45:15.360Z,19.85
2022-12-01T17:47:41.956Z,21.73
2022-12-01T17:50:10.232Z,21.20
2022-12-01T17:52:38.739Z,19.83
2022-12-01T17:55:07.466Z,21.00
2022-12-01T17:57:37.077Z,21.02
2022-12-01T18:00:05.722Z,20.02
2022-12-01T18:02:32.263Z,18.43
2022-12-01T18:05:00.654Z,20.13
2022-12-01T18:07:31.522Z,20.20
2022-12-01T18:09:58.300Z,19.23
2022-12-01T18:12:24.829Z,20.30
2022-12-01T18:14:54.584Z,21.40
2022-12-01T18:17:21.410Z,19.75
2022-12-01T18:19:50.180Z,18.45
2022-12-01T18:22:16.739Z,19.45
2022-12-01T18:24:43.616Z,21.55
2022-12-01T18:27:10.174Z,20.47
2022-12-01T18:29:36.895Z,21.92
2022-12-01T18:32:05.455Z,23.30
2022-12-01T18:34:32.310Z,19.58
2022-12-01T18:37:01.237Z,23.20
2022-12-01T18:39:40.084Z,21.93
2022-12-01T18:42:06.894Z,22.75
2022-12-01T18:44:33.560Z,22.40
2022-12-01T18:47:00.804Z,21.10
2022-12-01T18:49:28.704Z,23.55
2022-12-01T18:51:55.232Z,22.57
2022-12-01T18:54:21.934Z,20.20
2022-12-01T18:56:51.564Z,22.02
2022-12-01T18:59:18.254Z,20.67
2022-12-01T19:01:50.418Z,19.23
2022-12-01T19:04:17.233Z,20.13
2022-12-01T19:06:45.914Z,19.30
2022-12-01T19:09:13.667Z,19.35
2022-12-01T19:11:40.869Z,16.33
2022-12-01T19:14:08.534Z,20.38
2022-12-01T19:16:35.192Z,16.83
2022-12-01T19:19:02.839Z,20.10
2022-12-01T19:21:29.760Z,19.98
2022-12-01T19:23:58.458Z,19.85
2022-12-01T19:26:24.997Z,18.15
2022-12-01T19:28:54.163Z,18.43
2022-12-01T19:31:23.280Z,19.77
2022-12-01T19:33:52.205Z,17.35
2022-12-01T19:36:22.331Z,19.20
2022-12-01T19:38:50.863Z,18.17
2022-12-01T19:41:20.438Z,17.23
2022-12-01T19:43:47.206Z,17.70
2022-12-01T19:46:16.850Z,17.67
2022-12-01T19:48:43.568Z,15.07
2022-12-01T19:51:16.345Z,15.57
2022-12-01T19:53:43.265Z,13.23
2022-12-01T19:56:10.251Z,13.77
2022-12-01T19:58:38.180Z,13.20
2022-12-01T20:01:07.091Z,12.88
2022-12-01T20:03:33.935Z,11.43
2022-12-01T20:06:02.002Z,12.33
2022-12-01T20:08:28.684Z,12.02
2022-12-01T20:10:55.156Z,11.73
2022-12-01T20:13:25.625Z,12.30
2022-12-01T20:15:53.964Z,11.98
2022-12-01T20:18:23.408Z,9.40
2022-12-01T20:20:56.439Z,11.05
2022-12-01T20:23:28.849Z,11.05
2022-12-01T20:26:19.180Z,11.00
2022-12-01T20:32:08.008Z,10.93
2022-12-01T20:39:04.829Z,10.70
2022-12-01T21:09:40.746Z,9.43
2022-12-01T21:12:13.260Z,8.52
2022-12-01T21:14:44.469Z,9.40
2022-12-01T21:17:28.991Z,9.00
2022-12-01T21:20:08.623Z,9.70
2022-12-01T21:22:36.046Z,10.00
2022-12-01T21:25:12.095Z,9.55
2022-12-01T21:27:38.579Z,7.32
2022-12-01T21:30:15.624Z,9.60
2022-12-01T21:32:44.278Z,9.73
2022-12-01T21:35:17.123Z,9.80
2022-12-01T21:37:44.286Z,9.32
2022-12-01T21:40:18.835Z,9.95
2022-12-01T21:42:45.743Z,7.93
2022-12-01T21:45:22.034Z,9.83
2022-12-01T21:47:48.594Z,9.05
2022-12-01T21:50:19.691Z,11.13
2022-12-01T21:53:10.497Z,10.20
2022-12-01T21:55:40.126Z,10.60
2022-12-01T21:58:27.421Z,11.53
2022-12-01T22:00:59.552Z,11.13
2022-12-01T22:03:29.776Z,10.93
2022-12-01T22:06:27.875Z,10.65
2022-12-01T22:08:48.191Z,11.20
2022-12-01T22:11:18.042Z,11.07
2022-12-01T22:13:46.748Z,10.02
2022-12-01T22:16:18.830Z,10.98
2022-12-01T22:18:49.237Z,10.25
2022-12-01T22:21:41.106Z,11.50
2022-12-01T22:24:35.329Z,9.40
2022-12-01T22:27:29.679Z,9.80
2022-12-01T22:30:01.630Z,10.73
2022-12-01T22:32:37.806Z,11.18
2022-12-01T22:35:34.659Z,10.27
2022-12-01T22:38:20.622Z,9.50
2022-12-01T22:40:55.052Z,10.32
2022-12-01T22:43:27.953Z,9.73
2022-12-01T22:46:20.346Z,11.23
2022-12-01T22:48:50.992Z,11.30
2022-12-01T22:51:30.125Z,10.17
2022-12-01T22:54:37.967Z,10.70
2022-12-01T22:57:39.861Z,10.18
2022-12-01T23:00:16.752Z,10.43
2022-12-01T23:02:43.389Z,10.57
2022-12-01T23:05:22.072Z,11.37
2022-12-01T23:07:48.697Z,10.20
2022-12-01T23:10:17.929Z,11.60
2022-12-01T23:12:45.904Z,12.45
2022-12-01T23:15:23.437Z,11.45
2022-12-01T23:17:50.537Z,11.43
2022-12-01T23:20:36.858Z,12.45
2022-12-01T23:23:08.044Z,9.63
2022-12-01T23:25:35.218Z,11.07
2022-12-01T23:28:05.651Z,13.70
2022-12-01T23:30:32.209Z,12.67
2022-12-01T23:33:22.080Z,10.85
2022-12-01T23:35:55.061Z,12.07
2022-12-01T23:38:23.904Z,10.70
2022-12-01T23:40:52.658Z,11.70
2022-12-01T23:43:21.545Z,12.10
2022-12-01T23:45:55.773Z,13.10
2022-12-01T23:48:28.899Z,12.13
2022-12-01T23:50:56.789Z,12.25
2022-12-01T23:53:27.383Z,13.38
2022-12-01T23:55:54.388Z,12.30
2022-12-01T23:58:20.869Z,12.40
